Boscoreale, Italy

12:35 PM CET on February 11, 2016 (GMT +0100)
Napoli | | Change Station
CLOSE
Current Station
Personal Weather Station
Location: Torre Annunziata, CAMPANIA
Elevation: 204 ft
Nearby Weather Stations

Elev 204 ft 40.75 °N, 14.47 °E | Updated 1 second ago

Mostly Cloudy
Mostly Cloudy
55.6 °F
Feels Like 55.6 °F
N
20.7
Wind Variable Wind from West
Gusts 20.7 mph

Today
High -- | Low -- °F
--% Chance of Precip.
Yesterday
High -- | Low -- °F
Precip. -- in
Pressure 29.80 in
Visibility 6.2 miles
Clouds Few 2000 ft
Mostly Cloudy 3000 ft
Dew Point 48 °F
Humidity 77%
Rainfall 0.30 in
Snow Depth Not available.
7:02 AM 5:31 PM
Waxing Crescent, 11% visible
METAR LIRN 111120Z 29010KT 9999 FEW020 BKN030 13/09 Q1009 NOSIG
Pressure 29.80 in
Visibility 6.2 miles
Clouds Few 2000 ft
Mostly Cloudy 3000 ft
Dew Point 48 °F
Humidity 77%
Rainfall 0.30 in
Snow Depth Not available.
7:02 AM 5:31 PM
Waxing Crescent, 11% visible
METAR LIRN 111120Z 29010KT 9999 FEW020 BKN030 13/09 Q1009 NOSIG

10-Day Weather Forecast

Almanac

Astronomy

Feb. 11, 2016 Rise Set
Actual Time
Civil Twilight
Nautical Twilight
Astronomical Twilight
Moon
Length of Visible Light
Length of Day
Tomorrow will be .
, % of the Moon is Illuminated

Today's Extremes

Country Highs Country Lows

Community

WunderPhotos

Upload Photos

1,892,030 photos uploaded!

WunderBlog® & News

Nearby

Air Quality

  Air Quality AQ Index Pollutant
Not available.

Snow Depth

Station Depth Elevation

Earthquake Activity

City Distance Mag. Time & Date
Minimum magnitude displayed is 2.5.

Coastal Water Temperatures

Place Temperature

Stations

Nearby Weather Stations

Station Location Temp. Windchill Dew Point Humidity Wind Precip. Elev Updated Type